sensor_id;sensor_type;location;lat;lon;timestamp;pressure;altitude;pressure_sealevel;temperature;humidity
19457;BME280;9867;48.094;11.478;2022-12-18T00:01:25;96149.66;;;-4.39;100.00
19457;BME280;9867;48.094;11.478;2022-12-18T00:03:54;96148.47;;;-4.32;100.00
19457;BME280;9867;48.094;11.478;2022-12-18T00:06:23;96137.88;;;-2.88;100.00
19457;BME280;9867;48.094;11.478;2022-12-18T00:08:52;96126.06;;;-0.62;100.00
19457;BME280;9867;48.094;11.478;2022-12-18T00:11:21;96133.97;;;-2.51;100.00
19457;BME280;9867;48.094;11.478;2022-12-18T00:13:52;96135.66;;;-3.36;100.00
19457;BME280;9867;48.094;11.478;2022-12-18T00:16:22;96141.06;;;-3.88;100.00
19457;BME280;9867;48.094;11.478;2022-12-18T00:18:52;96149.72;;;-3.78;100.00
19457;BME280;9867;48.094;11.478;2022-12-18T00:21:21;96150.97;;;-3.71;100.00
19457;BME280;9867;48.094;11.478;2022-12-18T00:23:49;96151.47;;;-3.50;100.00
19457;BME280;9867;48.094;11.478;2022-12-18T00:26:19;96143.16;;;-3.81;100.00
19457;BME280;9867;48.094;11.478;2022-12-18T00:28:49;96144.47;;;-3.89;100.00
19457;BME280;9867;48.094;11.478;2022-12-18T00:31:19;96147.63;;;-4.01;100.00
19457;BME280;9867;48.094;11.478;2022-12-18T00:33:48;96158.94;;;-3.94;100.00
19457;BME280;9867;48.094;11.478;2022-12-18T00:36:22;96166.38;;;-3.93;100.00
19457;BME280;9867;48.094;11.478;2022-12-18T00:38:51;96162.00;;;-3.89;100.00
19457;BME280;9867;48.094;11.478;2022-12-18T00:41:20;96168.59;;;-3.72;100.00
19457;BME280;9867;48.094;11.478;2022-12-18T00:44:04;96158.25;;;-3.66;100.00
19457;BME280;9867;48.094;11.478;2022-12-18T00:46:34;96159.44;;;-3.58;100.00
19457;BME280;9867;48.094;11.478;2022-12-18T00:49:02;96166.44;;;-3.49;100.00
19457;BME280;9867;48.094;11.478;2022-12-18T00:51:30;96166.72;;;-3.69;100.00
19457;BME280;9867;48.094;11.478;2022-12-18T00:53:58;96167.56;;;-3.84;100.00
19457;BME280;9867;48.094;11.478;2022-12-18T00:56:26;96177.56;;;-3.68;100.00
19457;BME280;9867;48.094;11.478;2022-12-18T00:58:53;96178.41;;;-3.84;100.00
19457;BME280;9867;48.094;11.478;2022-12-18T01:01:22;96176.28;;;-3.75;100.00
19457;BME280;9867;48.094;11.478;2022-12-18T01:03:51;96183.16;;;-3.63;100.00
19457;BME280;9867;48.094;11.478;2022-12-18T01:06:19;96194.09;;;-3.50;100.00
19457;BME280;9867;48.094;11.478;2022-12-18T01:08:47;96203.59;;;-3.55;100.00
19457;BME280;9867;48.094;11.478;2022-12-18T01:11:17;96206.44;;;-3.61;100.00
19457;BME280;9867;48.094;11.478;2022-12-18T01:13:45;96214.06;;;-3.49;100.00
19457;BME280;9867;48.094;11.478;2022-12-18T01:16:14;96208.66;;;-3.41;100.00
19457;BME280;9867;48.094;11.478;2022-12-18T01:18:42;96216.41;;;-3.46;100.00
19457;BME280;9867;48.094;11.478;2022-12-18T01:21:13;96215.91;;;-3.66;100.00
19457;BME280;9867;48.094;11.478;2022-12-18T01:23:41;96221.88;;;-3.69;100.00
19457;BME280;9867;48.094;11.478;2022-12-18T01:26:12;96219.88;;;-3.78;100.00
19457;BME280;9867;48.094;11.478;2022-12-18T01:28:40;96223.59;;;-3.69;100.00
19457;BME280;9867;48.094;11.478;2022-12-18T01:31:15;96224.97;;;-3.95;100.00
19457;BME280;9867;48.094;11.478;2022-12-18T01:33:45;96232.81;;;-3.86;100.00
19457;BME280;9867;48.094;11.478;2022-12-18T01:36:19;96231.78;;;-3.82;100.00
19457;BME280;9867;48.094;11.478;2022-12-18T01:38:48;96236.13;;;-3.69;100.00
19457;BME280;9867;48.094;11.478;2022-12-18T01:41:19;96240.56;;;-3.74;100.00
19457;BME280;9867;48.094;11.478;2022-12-18T01:43:50;96232.31;;;-3.77;100.00
19457;BME280;9867;48.094;11.478;2022-12-18T01:46:21;96218.09;;;-3.92;100.00
19457;BME280;9867;48.094;11.478;2022-12-18T01:48:51;96231.44;;;-3.91;100.00
19457;BME280;9867;48.094;11.478;2022-12-18T01:51:21;96234.69;;;-3.89;100.00
19457;BME280;9867;48.094;11.478;2022-12-18T01:53:50;96230.22;;;-3.84;100.00
19457;BME280;9867;48.094;11.478;2022-12-18T01:56:19;96245.03;;;-3.80;100.00
19457;BME280;9867;48.094;11.478;2022-12-18T01:58:54;96249.63;;;-3.88;100.00
19457;BME280;9867;48.094;11.478;2022-12-18T02:01:25;96218.41;;;-3.98;100.00
19457;BME280;9867;48.094;11.478;2022-12-18T02:03:53;96241.63;;;-4.10;100.00
19457;BME280;9867;48.094;11.478;2022-12-18T02:06:26;96226.75;;;-3.97;100.00
19457;BME280;9867;48.094;11.478;2022-12-18T02:09:02;96224.41;;;-4.00;100.00
19457;BME280;9867;48.094;11.478;2022-12-18T02:11:41;96233.78;;;-4.20;100.00
19457;BME280;9867;48.094;11.478;2022-12-18T02:14:18;96222.94;;;-4.20;100.00
19457;BME280;9867;48.094;11.478;2022-12-18T02:16:59;96226.38;;;-4.05;100.00
19457;BME280;9867;48.094;11.478;2022-12-18T02:19:57;96222.09;;;-4.03;100.00
19457;BME280;9867;48.094;11.478;2022-12-18T02:22:39;96225.56;;;-4.06;100.00
19457;BME280;9867;48.094;11.478;2022-12-18T02:25:21;96221.81;;;-4.30;100.00
19457;BME280;9867;48.094;11.478;2022-12-18T02:27:54;96229.81;;;-4.24;100.00
19457;BME280;9867;48.094;11.478;2022-12-18T02:30:27;96226.69;;;-4.27;100.00
19457;BME280;9867;48.094;11.478;2022-12-18T02:32:59;96228.69;;;-4.18;100.00
19457;BME280;9867;48.094;11.478;2022-12-18T02:35:31;96226.69;;;-4.27;100.00
19457;BME280;9867;48.094;11.478;2022-12-18T02:38:01;96226.69;;;-4.27;100.00
19457;BME280;9867;48.094;11.478;2022-12-18T02:40:35;96236.00;;;-4.47;100.00
19457;BME280;9867;48.094;11.478;2022-12-18T02:43:09;96230.53;;;-4.37;100.00
19457;BME280;9867;48.094;11.478;2022-12-18T02:45:46;96218.44;;;-4.14;100.00
19457;BME280;9867;48.094;11.478;2022-12-18T02:48:22;96212.19;;;-4.22;100.00
19457;BME280;9867;48.094;11.478;2022-12-18T02:50:59;96224.31;;;-4.30;100.00
19457;BME280;9867;48.094;11.478;2022-12-18T02:53:36;96224.94;;;-4.42;100.00
19457;BME280;9867;48.094;11.478;2022-12-18T02:56:11;96223.34;;;-4.28;100.00
19457;BME280;9867;48.094;11.478;2022-12-18T02:58:47;96230.66;;;-4.56;100.00
19457;BME280;9867;48.094;11.478;2022-12-18T03:01:34;96238.75;;;-4.51;100.00
19457;BME280;9867;48.094;11.478;2022-12-18T03:04:08;96225.00;;;-4.44;100.00
19457;BME280;9867;48.094;11.478;2022-12-18T03:06:41;96218.22;;;-4.42;100.00
19457;BME280;9867;48.094;11.478;2022-12-18T03:09:15;96222.28;;;-4.39;100.00
19457;BME280;9867;48.094;11.478;2022-12-18T03:11:49;96216.63;;;-4.43;100.00
19457;BME280;9867;48.094;11.478;2022-12-18T03:14:40;96215.34;;;-4.50;100.00
19457;BME280;9867;48.094;11.478;2022-12-18T03:17:13;96184.06;;;-4.59;100.00
19457;BME280;9867;48.094;11.478;2022-12-18T03:19:43;96204.91;;;-4.42;100.00
19457;BME280;9867;48.094;11.478;2022-12-18T03:22:14;96198.38;;;-4.29;100.00
19457;BME280;9867;48.094;11.478;2022-12-18T03:24:48;96224.63;;;-4.21;100.00
19457;BME280;9867;48.094;11.478;2022-12-18T03:27:18;96221.28;;;-4.04;100.00
19457;BME280;9867;48.094;11.478;2022-12-18T03:29:59;96224.75;;;-4.06;100.00
19457;BME280;9867;48.094;11.478;2022-12-18T03:32:39;96214.88;;;-4.09;100.00
19457;BME280;9867;48.094;11.478;2022-12-18T03:35:13;96223.44;;;-3.98;100.00
19457;BME280;9867;48.094;11.478;2022-12-18T03:37:42;96231.03;;;-4.31;100.00
19457;BME280;9867;48.094;11.478;2022-12-18T03:40:10;96226.47;;;-4.40;100.00
19457;BME280;9867;48.094;11.478;2022-12-18T03:42:45;96224.47;;;-4.18;100.00
19457;BME280;9867;48.094;11.478;2022-12-18T03:45:22;96233.72;;;-4.02;100.00
19457;BME280;9867;48.094;11.478;2022-12-18T03:47:58;96243.41;;;-4.12;100.00
19457;BME280;9867;48.094;11.478;2022-12-18T03:50:37;96237.50;;;-3.95;100.00
19457;BME280;9867;48.094;11.478;2022-12-18T03:53:15;96232.91;;;-4.03;100.00
19457;BME280;9867;48.094;11.478;2022-12-18T03:55:47;96234.00;;;-4.24;100.00
19457;BME280;9867;48.094;11.478;2022-12-18T03:58:20;96238.53;;;-4.15;100.00
19457;BME280;9867;48.094;11.478;2022-12-18T04:01:03;96221.66;;;-3.96;100.00
19457;BME280;9867;48.094;11.478;2022-12-18T04:03:34;96236.31;;;-4.04;100.00
19457;BME280;9867;48.094;11.478;2022-12-18T04:06:06;96227.47;;;-4.11;100.00
19457;BME280;9867;48.094;11.478;2022-12-18T04:08:34;96239.19;;;-4.12;100.00
19457;BME280;9867;48.094;11.478;2022-12-18T04:11:05;96237.81;;;-4.33;100.00
19457;BME280;9867;48.094;11.478;2022-12-18T04:13:35;96229.25;;;-4.29;100.00
19457;BME280;9867;48.094;11.478;2022-12-18T04:16:15;96237.50;;;-4.11;100.00
19457;BME280;9867;48.094;11.478;2022-12-18T04:18:44;96247.75;;;-4.16;100.00
19457;BME280;9867;48.094;11.478;2022-12-18T04:21:13;96250.59;;;-4.06;100.00
19457;BME280;9867;48.094;11.478;2022-12-18T04:23:41;96245.59;;;-4.06;100.00
19457;BME280;9867;48.094;11.478;2022-12-18T04:26:09;96227.78;;;-4.01;100.00
19457;BME280;9867;48.094;11.478;2022-12-18T04:28:46;96245.97;;;-3.98;100.00
19457;BME280;9867;48.094;11.478;2022-12-18T04:31:16;96237.34;;;-3.92;100.00
19457;BME280;9867;48.094;11.478;2022-12-18T04:33:43;96241.69;;;-3.96;100.00
19457;BME280;9867;48.094;11.478;2022-12-18T04:36:12;96241.06;;;-3.99;100.00
19457;BME280;9867;48.094;11.478;2022-12-18T04:38:40;96247.59;;;-3.97;100.00
19457;BME280;9867;48.094;11.478;2022-12-18T04:41:13;96239.28;;;-3.97;100.00
19457;BME280;9867;48.094;11.478;2022-12-18T04:43:43;96237.31;;;-4.24;100.00
19457;BME280;9867;48.094;11.478;2022-12-18T04:46:11;96248.91;;;-4.05;100.00
19457;BME280;9867;48.094;11.478;2022-12-18T04:48:41;96240.97;;;-3.98;100.00
19457;BME280;9867;48.094;11.478;2022-12-18T04:51:09;96251.50;;;-4.07;100.00
19457;BME280;9867;48.094;11.478;2022-12-18T04:53:38;96262.28;;;-4.22;100.00
19457;BME280;9867;48.094;11.478;2022-12-18T04:56:08;96260.13;;;-4.13;100.00
19457;BME280;9867;48.094;11.478;2022-12-18T04:58:37;96262.94;;;-4.19;100.00
19457;BME280;9867;48.094;11.478;2022-12-18T05:01:05;96275.78;;;-4.25;100.00
19457;BME280;9867;48.094;11.478;2022-12-18T05:03:34;96283.03;;;-4.03;100.00
19457;BME280;9867;48.094;11.478;2022-12-18T05:06:06;96271.31;;;-4.02;100.00
19457;BME280;9867;48.094;11.478;2022-12-18T05:08:33;96262.31;;;-4.06;100.00
19457;BME280;9867;48.094;11.478;2022-12-18T05:11:02;96268.47;;;-3.96;100.00
19457;BME280;9867;48.094;11.478;2022-12-18T05:13:31;96274.78;;;-3.89;100.00
19457;BME280;9867;48.094;11.478;2022-12-18T05:15:59;96274.34;;;-4.29;100.00
19457;BME280;9867;48.094;11.478;2022-12-18T05:18:28;96275.00;;;-4.25;100.00
19457;BME280;9867;48.094;11.478;2022-12-18T05:20:56;96273.06;;;-4.04;100.00
19457;BME280;9867;48.094;11.478;2022-12-18T05:23:25;96270.22;;;-4.14;100.00
19457;BME280;9867;48.094;11.478;2022-12-18T05:25:54;96264.72;;;-4.21;100.00
19457;BME280;9867;48.094;11.478;2022-12-18T05:28:24;96270.13;;;-4.28;100.00
19457;BME280;9867;48.094;11.478;2022-12-18T05:30:54;96292.09;;;-4.33;100.00
19457;BME280;9867;48.094;11.478;2022-12-18T05:33:24;96286.94;;;-4.30;100.00
19457;BME280;9867;48.094;11.478;2022-12-18T05:35:52;96274.00;;;-4.23;100.00
19457;BME280;9867;48.094;11.478;2022-12-18T05:38:21;96287.66;;;-4.28;100.00
19457;BME280;9867;48.094;11.478;2022-12-18T05:40:51;96294.56;;;-4.49;100.00
19457;BME280;9867;48.094;11.478;2022-12-18T05:43:20;96299.75;;;-4.36;100.00
19457;BME280;9867;48.094;11.478;2022-12-18T05:45:49;96302.63;;;-4.44;100.00
19457;BME280;9867;48.094;11.478;2022-12-18T05:48:18;96306.41;;;-4.53;100.00
19457;BME280;9867;48.094;11.478;2022-12-18T05:50:47;96299.34;;;-4.62;100.00
19457;BME280;9867;48.094;11.478;2022-12-18T05:53:17;96300.88;;;-4.42;100.00
19457;BME280;9867;48.094;11.478;2022-12-18T05:55:46;96300.63;;;-4.37;100.00
19457;BME280;9867;48.094;11.478;2022-12-18T05:58:15;96305.06;;;-4.42;100.00
19457;BME280;9867;48.094;11.478;2022-12-18T06:00:45;96305.63;;;-4.53;100.00
19457;BME280;9867;48.094;11.478;2022-12-18T06:03:13;96305.91;;;-4.59;100.00
19457;BME280;9867;48.094;11.478;2022-12-18T06:05:43;96305.84;;;-4.58;100.00
19457;BME280;9867;48.094;11.478;2022-12-18T06:08:12;96303.28;;;-4.73;100.00
19457;BME280;9867;48.094;11.478;2022-12-18T06:10:40;96308.66;;;-4.81;100.00
19457;BME280;9867;48.094;11.478;2022-12-18T06:13:08;96314.91;;;-4.72;100.00
19457;BME280;9867;48.094;11.478;2022-12-18T06:15:37;96311.88;;;-4.62;100.00
19457;BME280;9867;48.094;11.478;2022-12-18T06:18:05;96309.53;;;-4.82;100.00
19457;BME280;9867;48.094;11.478;2022-12-18T06:20:33;96305.47;;;-4.85;100.00
19457;BME280;9867;48.094;11.478;2022-12-18T06:23:03;96301.66;;;-4.74;100.00
19457;BME280;9867;48.094;11.478;2022-12-18T06:25:31;96307.22;;;-4.69;100.00
19457;BME280;9867;48.094;11.478;2022-12-18T06:27:59;96316.59;;;-4.56;100.00
19457;BME280;9867;48.094;11.478;2022-12-18T06:30:27;96312.81;;;-4.64;100.00
19457;BME280;9867;48.094;11.478;2022-12-18T06:32:56;96314.91;;;-4.72;100.00
19457;BME280;9867;48.094;11.478;2022-12-18T06:35:24;96314.88;;;-4.55;100.00
19457;BME280;9867;48.094;11.478;2022-12-18T06:37:51;96328.66;;;-4.64;100.00
19457;BME280;9867;48.094;11.478;2022-12-18T06:40:20;96324.88;;;-4.38;100.00
19457;BME280;9867;48.094;11.478;2022-12-18T06:42:48;96325.97;;;-4.43;100.00
19457;BME280;9867;48.094;11.478;2022-12-18T06:45:15;96328.69;;;-4.31;100.00
19457;BME280;9867;48.094;11.478;2022-12-18T06:47:43;96334.78;;;-4.52;100.00
19457;BME280;9867;48.094;11.478;2022-12-18T06:50:13;96344.56;;;-4.65;100.00
19457;BME280;9867;48.094;11.478;2022-12-18T06:52:40;96344.91;;;-4.38;100.00
19457;BME280;9867;48.094;11.478;2022-12-18T06:55:10;96344.84;;;-4.36;100.00
19457;BME280;9867;48.094;11.478;2022-12-18T06:57:38;96342.66;;;-4.60;100.00
19457;BME280;9867;48.094;11.478;2022-12-18T07:00:07;96347.69;;;-4.44;100.00
19457;BME280;9867;48.094;11.478;2022-12-18T07:02:40;96351.00;;;-4.26;100.00
19457;BME280;9867;48.094;11.478;2022-12-18T07:05:08;96360.66;;;-4.36;100.00
19457;BME280;9867;48.094;11.478;2022-12-18T07:07:38;96358.31;;;-4.39;100.00
19457;BME280;9867;48.094;11.478;2022-12-18T07:10:06;96366.34;;;-4.50;100.00
19457;BME280;9867;48.094;11.478;2022-12-18T07:12:34;96359.34;;;-4.26;100.00
19457;BME280;9867;48.094;11.478;2022-12-18T07:15:03;96366.13;;;-4.28;100.00
19457;BME280;9867;48.094;11.478;2022-12-18T07:17:31;96374.06;;;-4.37;100.00
19457;BME280;9867;48.094;11.478;2022-12-18T07:19:58;96375.16;;;-4.42;100.00
19457;BME280;9867;48.094;11.478;2022-12-18T07:22:26;96386.59;;;-4.54;100.00
19457;BME280;9867;48.094;11.478;2022-12-18T07:24:55;96390.66;;;-4.52;100.00
19457;BME280;9867;48.094;11.478;2022-12-18T07:27:23;96394.09;;;-4.37;100.00
19457;BME280;9867;48.094;11.478;2022-12-18T07:29:51;96376.94;;;-4.62;100.00
19457;BME280;9867;48.094;11.478;2022-12-18T07:32:19;96382.63;;;-4.58;100.00
19457;BME280;9867;48.094;11.478;2022-12-18T07:34:47;96400.13;;;-4.75;100.00
19457;BME280;9867;48.094;11.478;2022-12-18T07:37:15;96383.06;;;-4.67;100.00
19457;BME280;9867;48.094;11.478;2022-12-18T07:39:42;96376.50;;;-4.70;100.00
19457;BME280;9867;48.094;11.478;2022-12-18T07:42:12;96379.84;;;-4.52;100.00
19457;BME280;9867;48.094;11.478;2022-12-18T07:44:58;96367.44;;;-4.38;100.00
19457;BME280;9867;48.094;11.478;2022-12-18T07:47:26;96361.19;;;-4.47;100.00
19457;BME280;9867;48.094;11.478;2022-12-18T07:49:55;96377.31;;;-4.35;100.00
19457;BME280;9867;48.094;11.478;2022-12-18T07:52:24;96379.97;;;-4.55;100.00
19457;BME280;9867;48.094;11.478;2022-12-18T07:54:52;96388.50;;;-4.42;100.00
19457;BME280;9867;48.094;11.478;2022-12-18T07:57:21;96383.63;;;-4.45;100.00
19457;BME280;9867;48.094;11.478;2022-12-18T08:00:10;96379.13;;;-4.21;100.00
19457;BME280;9867;48.094;11.478;2022-12-18T08:02:38;96388.47;;;-4.25;100.00
19457;BME280;9867;48.094;11.478;2022-12-18T08:05:08;96390.03;;;-4.22;100.00
19457;BME280;9867;48.094;11.478;2022-12-18T08:07:36;96400.00;;;-4.55;100.00
19457;BME280;9867;48.094;11.478;2022-12-18T08:10:04;96399.13;;;-4.54;100.00
19457;BME280;9867;48.094;11.478;2022-12-18T08:12:34;96403.03;;;-4.31;100.00
19457;BME280;9867;48.094;11.478;2022-12-18T08:15:02;96407.44;;;-4.36;100.00
19457;BME280;9867;48.094;11.478;2022-12-18T08:17:30;96417.59;;;-4.22;100.00
19457;BME280;9867;48.094;11.478;2022-12-18T08:19:58;96411.84;;;-4.41;100.00
19457;BME280;9867;48.094;11.478;2022-12-18T08:22:26;96416.78;;;-4.23;100.00
19457;BME280;9867;48.094;11.478;2022-12-18T08:24:53;96419.78;;;-4.16;100.00
19457;BME280;9867;48.094;11.478;2022-12-18T08:27:21;96414.94;;;-4.54;100.00
19457;BME280;9867;48.094;11.478;2022-12-18T08:29:58;96413.63;;;-4.43;100.00
19457;BME280;9867;48.094;11.478;2022-12-18T08:32:26;96421.38;;;-4.31;100.00
19457;BME280;9867;48.094;11.478;2022-12-18T08:34:54;96401.00;;;-4.25;100.00
19457;BME280;9867;48.094;11.478;2022-12-18T08:37:22;96395.50;;;-4.31;100.00
19457;BME280;9867;48.094;11.478;2022-12-18T08:39:50;96413.47;;;-4.40;100.00
19457;BME280;9867;48.094;11.478;2022-12-18T08:42:18;96420.91;;;-4.56;100.00
19457;BME280;9867;48.094;11.478;2022-12-18T08:45:05;96422.47;;;-4.36;100.00
19457;BME280;9867;48.094;11.478;2022-12-18T08:47:33;96416.50;;;-0.33;100.00
19457;BME280;9867;48.094;11.478;2022-12-18T08:50:01;96432.91;;;-0.41;100.00
19457;BME280;9867;48.094;11.478;2022-12-18T08:52:31;96419.91;;;0.92;100.00
19457;BME280;9867;48.094;11.478;2022-12-18T08:54:59;96417.22;;;1.30;100.00
19457;BME280;9867;48.094;11.478;2022-12-18T08:57:27;96423.81;;;1.44;100.00
19457;BME280;9867;48.094;11.478;2022-12-18T08:59:54;96418.41;;;1.38;100.00
19457;BME280;9867;48.094;11.478;2022-12-18T09:02:24;96431.19;;;-0.80;100.00
19457;BME280;9867;48.094;11.478;2022-12-18T09:04:52;96438.00;;;-0.15;100.00
19457;BME280;9867;48.094;11.478;2022-12-18T09:07:23;96440.69;;;0.47;100.00
19457;BME280;9867;48.094;11.478;2022-12-18T09:09:51;96437.09;;;-0.14;100.00
19457;BME280;9867;48.094;11.478;2022-12-18T09:12:19;96441.88;;;-2.02;100.00
19457;BME280;9867;48.094;11.478;2022-12-18T09:14:46;96438.28;;;-0.72;100.00
19457;BME280;9867;48.094;11.478;2022-12-18T09:17:14;96440.19;;;-0.90;100.00
19457;BME280;9867;48.094;11.478;2022-12-18T09:19:44;96441.34;;;-2.67;100.00
19457;BME280;9867;48.094;11.478;2022-12-18T09:22:11;96448.63;;;-3.41;100.00
19457;BME280;9867;48.094;11.478;2022-12-18T09:24:39;96436.88;;;-3.57;100.00
19457;BME280;9867;48.094;11.478;2022-12-18T09:27:07;96438.38;;;-3.54;100.00
19457;BME280;9867;48.094;11.478;2022-12-18T09:29:35;96440.69;;;-3.83;100.00
19457;BME280;9867;48.094;11.478;2022-12-18T09:32:04;96436.81;;;-4.05;100.00
19457;BME280;9867;48.094;11.478;2022-12-18T09:34:32;96430.66;;;-4.00;100.00
19457;BME280;9867;48.094;11.478;2022-12-18T09:37:01;96428.53;;;-3.90;100.00
19457;BME280;9867;48.094;11.478;2022-12-18T09:39:29;96434.81;;;-3.99;100.00
19457;BME280;9867;48.094;11.478;2022-12-18T09:41:57;96440.19;;;-3.89;100.00
19457;BME280;9867;48.094;11.478;2022-12-18T09:44:27;96423.88;;;-3.98;100.00
19457;BME280;9867;48.094;11.478;2022-12-18T09:47:03;96426.31;;;-3.79;100.00
19457;BME280;9867;48.094;11.478;2022-12-18T09:49:34;96421.94;;;-4.08;100.00
19457;BME280;9867;48.094;11.478;2022-12-18T09:52:10;96417.97;;;-4.30;100.00
19457;BME280;9867;48.094;11.478;2022-12-18T09:54:40;96422.00;;;-4.10;100.00
19457;BME280;9867;48.094;11.478;2022-12-18T09:57:13;96418.59;;;-3.92;100.00
19457;BME280;9867;48.094;11.478;2022-12-18T09:59:42;96413.53;;;-3.74;100.00
19457;BME280;9867;48.094;11.478;2022-12-18T10:02:17;96413.44;;;-3.73;100.00
19457;BME280;9867;48.094;11.478;2022-12-18T10:04:50;96414.69;;;-3.49;100.00
19457;BME280;9867;48.094;11.478;2022-12-18T10:07:28;96413.78;;;-3.79;100.00
19457;BME280;9867;48.094;11.478;2022-12-18T10:10:05;96423.00;;;-3.97;100.00
19457;BME280;9867;48.094;11.478;2022-12-18T10:12:42;96410.25;;;-3.92;100.00
19457;BME280;9867;48.094;11.478;2022-12-18T10:15:18;96407.97;;;-3.80;100.00
19457;BME280;9867;48.094;11.478;2022-12-18T10:17:52;96406.50;;;-3.68;100.00
19457;BME280;9867;48.094;11.478;2022-12-18T10:20:30;96395.38;;;-3.62;100.00
19457;BME280;9867;48.094;11.478;2022-12-18T10:23:05;96400.63;;;-3.51;100.00
19457;BME280;9867;48.094;11.478;2022-12-18T10:25:53;96398.09;;;-3.83;100.00
19457;BME280;9867;48.094;11.478;2022-12-18T10:28:23;96391.66;;;-4.04;100.00
19457;BME280;9867;48.094;11.478;2022-12-18T10:30:51;96379.59;;;-3.97;100.00
19457;BME280;9867;48.094;11.478;2022-12-18T10:33:22;96378.22;;;-4.03;100.00
19457;BME280;9867;48.094;11.478;2022-12-18T10:35:52;96381.19;;;-3.79;100.00
19457;BME280;9867;48.094;11.478;2022-12-18T10:38:24;96375.16;;;-3.59;100.00
19457;BME280;9867;48.094;11.478;2022-12-18T10:40:54;96378.94;;;-3.68;100.00
19457;BME280;9867;48.094;11.478;2022-12-18T10:43:24;96364.06;;;-3.55;100.00
19457;BME280;9867;48.094;11.478;2022-12-18T10:46:02;96374.34;;;-3.60;100.00
19457;BME280;9867;48.094;11.478;2022-12-18T10:48:33;96362.22;;;-3.36;100.00
19457;BME280;9867;48.094;11.478;2022-12-18T10:51:02;96383.28;;;-3.71;100.00
19457;BME280;9867;48.094;11.478;2022-12-18T10:53:41;96383.50;;;-3.92;100.00
19457;BME280;9867;48.094;11.478;2022-12-18T10:56:10;96367.78;;;-4.11;100.00
19457;BME280;9867;48.094;11.478;2022-12-18T10:58:38;96384.63;;;-3.97;100.00
19457;BME280;9867;48.094;11.478;2022-12-18T11:01:10;96374.72;;;-3.67;100.00
19457;BME280;9867;48.094;11.478;2022-12-18T11:03:40;96383.47;;;-3.59;100.00
19457;BME280;9867;48.094;11.478;2022-12-18T11:06:10;96386.47;;;-3.52;100.00
19457;BME280;9867;48.094;11.478;2022-12-18T11:08:41;96387.88;;;-3.31;100.00
19457;BME280;9867;48.094;11.478;2022-12-18T11:11:19;96388.88;;;-3.51;100.00
19457;BME280;9867;48.094;11.478;2022-12-18T11:13:57;96391.81;;;-3.58;100.00
19457;BME280;9867;48.094;11.478;2022-12-18T11:16:26;96393.44;;;-3.41;100.00
19457;BME280;9867;48.094;11.478;2022-12-18T11:18:55;96393.34;;;-3.40;100.00
19457;BME280;9867;48.094;11.478;2022-12-18T11:21:39;96398.84;;;-3.49;100.00
19457;BME280;9867;48.094;11.478;2022-12-18T11:24:18;96395.88;;;-3.24;100.00
19457;BME280;9867;48.094;11.478;2022-12-18T11:26:48;96390.38;;;-3.31;100.00
19457;BME280;9867;48.094;11.478;2022-12-18T11:29:27;96391.75;;;-3.41;100.00
19457;BME280;9867;48.094;11.478;2022-12-18T11:32:20;96381.31;;;-3.33;100.00
19457;BME280;9867;48.094;11.478;2022-12-18T11:34:53;96388.50;;;-3.27;100.00
19457;BME280;9867;48.094;11.478;2022-12-18T11:37:24;96376.84;;;-3.13;100.00
19457;BME280;9867;48.094;11.478;2022-12-18T11:39:57;96382.50;;;-3.25;100.00
19457;BME280;9867;48.094;11.478;2022-12-18T11:42:34;96376.38;;;-3.35;100.00
19457;BME280;9867;48.094;11.478;2022-12-18T11:45:15;96374.50;;;-3.47;100.00
19457;BME280;9867;48.094;11.478;2022-12-18T11:48:16;96364.47;;;-3.47;100.00
19457;BME280;9867;48.094;11.478;2022-12-18T11:50:48;96369.81;;;-3.37;100.00
19457;BME280;9867;48.094;11.478;2022-12-18T11:53:18;96363.16;;;-3.54;100.00
19457;BME280;9867;48.094;11.478;2022-12-18T11:56:00;96365.50;;;-3.51;100.00
19457;BME280;9867;48.094;11.478;2022-12-18T11:58:44;96359.72;;;-3.36;100.00
19457;BME280;9867;48.094;11.478;2022-12-18T12:01:27;96358.22;;;-3.24;100.00
19457;BME280;9867;48.094;11.478;2022-12-18T12:07:28;96344.81;;;-3.39;100.00
19457;BME280;9867;48.094;11.478;2022-12-18T12:10:09;96356.72;;;-3.58;100.00
19457;BME280;9867;48.094;11.478;2022-12-18T12:12:52;96363.72;;;-3.65;100.00
19457;BME280;9867;48.094;11.478;2022-12-18T12:15:30;96371.50;;;-3.69;100.00
19457;BME280;9867;48.094;11.478;2022-12-18T12:18:08;96361.06;;;-3.62;100.00
19457;BME280;9867;48.094;11.478;2022-12-18T12:20:47;96355.09;;;-3.59;100.00
19457;BME280;9867;48.094;11.478;2022-12-18T12:23:25;96355.00;;;-3.58;100.00
19457;BME280;9867;48.094;11.478;2022-12-18T12:25:58;96349.41;;;-3.47;100.00
19457;BME280;9867;48.094;11.478;2022-12-18T12:28:44;96346.50;;;-3.39;100.00
19457;BME280;9867;48.094;11.478;2022-12-18T12:31:24;96344.00;;;-3.39;100.00
19457;BME280;9867;48.094;11.478;2022-12-18T12:34:03;96343.28;;;-3.41;100.00
19457;BME280;9867;48.094;11.478;2022-12-18T12:36:41;96338.00;;;-3.53;100.00
19457;BME280;9867;48.094;11.478;2022-12-18T12:39:16;96332.69;;;-3.62;100.00
19457;BME280;9867;48.094;11.478;2022-12-18T12:41:46;96329.19;;;-3.44;100.00
19457;BME280;9867;48.094;11.478;2022-12-18T12:44:39;96336.38;;;-3.54;100.00
19457;BME280;9867;48.094;11.478;2022-12-18T12:47:14;96337.44;;;-3.73;100.00
19457;BME280;9867;48.094;11.478;2022-12-18T12:49:44;96338.66;;;-3.65;100.00
19457;BME280;9867;48.094;11.478;2022-12-18T12:52:25;96342.94;;;-3.51;100.00
19457;BME280;9867;48.094;11.478;2022-12-18T12:54:56;96332.28;;;-3.55;100.00
19457;BME280;9867;48.094;11.478;2022-12-18T12:57:30;96337.78;;;-3.48;100.00
19457;BME280;9867;48.094;11.478;2022-12-18T13:00:05;96350.81;;;-3.57;100.00
19457;BME280;9867;48.094;11.478;2022-12-18T13:02:42;96344.25;;;-3.44;100.00
19457;BME280;9867;48.094;11.478;2022-12-18T13:05:18;96329.91;;;-3.73;100.00
19457;BME280;9867;48.094;11.478;2022-12-18T13:07:50;96345.75;;;-3.89;100.00
19457;BME280;9867;48.094;11.478;2022-12-18T13:10:33;96340.97;;;-3.93;100.00
19457;BME280;9867;48.094;11.478;2022-12-18T13:13:04;96348.97;;;-4.02;100.00
19457;BME280;9867;48.094;11.478;2022-12-18T13:15:42;96342.59;;;-3.77;100.00
19457;BME280;9867;48.094;11.478;2022-12-18T13:18:18;96359.69;;;-3.67;100.00